sensor_id;sensor_type;location;lat;lon;timestamp;P1;durP1;ratioP1;P2;durP2;ratioP2
66870;SDS011;53780;44.998;9.926;2023-06-01T00:02:21;13.53;;;7.80;;
66870;SDS011;53780;44.998;9.926;2023-06-01T00:05:25;15.27;;;8.50;;
66870;SDS011;53780;44.998;9.926;2023-06-01T00:08:29;15.35;;;8.50;;
66870;SDS011;53780;44.998;9.926;2023-06-01T00:11:33;18.33;;;9.23;;
66870;SDS011;53780;44.998;9.926;2023-06-01T00:14:37;16.67;;;8.82;;
66870;SDS011;53780;44.998;9.926;2023-06-01T00:17:41;18.43;;;9.00;;
66870;SDS011;53780;44.998;9.926;2023-06-01T00:20:45;19.35;;;9.45;;
66870;SDS011;53780;44.998;9.926;2023-06-01T00:23:49;16.35;;;9.40;;
66870;SDS011;53780;44.998;9.926;2023-06-01T00:26:53;18.13;;;9.65;;
66870;SDS011;53780;44.998;9.926;2023-06-01T00:29:57;17.52;;;10.00;;
66870;SDS011;53780;44.998;9.926;2023-06-01T00:33:01;18.00;;;10.37;;
66870;SDS011;53780;44.998;9.926;2023-06-01T00:36:05;19.42;;;10.73;;
66870;SDS011;53780;44.998;9.926;2023-06-01T00:39:09;21.38;;;11.30;;
66870;SDS011;53780;44.998;9.926;2023-06-01T00:42:13;19.08;;;10.88;;
66870;SDS011;53780;44.998;9.926;2023-06-01T00:45:17;22.55;;;11.05;;
66870;SDS011;53780;44.998;9.926;2023-06-01T00:48:21;15.13;;;9.83;;
66870;SDS011;53780;44.998;9.926;2023-06-01T00:51:26;19.23;;;10.00;;
66870;SDS011;53780;44.998;9.926;2023-06-01T00:54:30;18.15;;;9.35;;
66870;SDS011;53780;44.998;9.926;2023-06-01T00:57:34;13.23;;;8.32;;
66870;SDS011;53780;44.998;9.926;2023-06-01T01:00:38;16.80;;;8.45;;
66870;SDS011;53780;44.998;9.926;2023-06-01T01:03:43;15.47;;;8.20;;
66870;SDS011;53780;44.998;9.926;2023-06-01T01:10:13;14.15;;;8.20;;
66870;SDS011;53780;44.998;9.926;2023-06-01T01:13:48;13.27;;;8.00;;
66870;SDS011;53780;44.998;9.926;2023-06-01T01:20:24;14.77;;;8.23;;
66870;SDS011;53780;44.998;9.926;2023-06-01T01:30:55;13.27;;;7.50;;
66870;SDS011;53780;44.998;9.926;2023-06-01T01:34:01;14.35;;;8.30;;
66870;SDS011;53780;44.998;9.926;2023-06-01T01:37:06;16.20;;;8.07;;
66870;SDS011;53780;44.998;9.926;2023-06-01T01:40:10;14.65;;;7.65;;
66870;SDS011;53780;44.998;9.926;2023-06-01T01:43:14;15.45;;;8.20;;
66870;SDS011;53780;44.998;9.926;2023-06-01T01:49:46;15.20;;;7.60;;
66870;SDS011;53780;44.998;9.926;2023-06-01T01:52:53;14.30;;;7.97;;
66870;SDS011;53780;44.998;9.926;2023-06-01T01:55:58;14.65;;;8.00;;
66870;SDS011;53780;44.998;9.926;2023-06-01T01:59:03;13.75;;;8.07;;
66870;SDS011;53780;44.998;9.926;2023-06-01T02:02:09;14.35;;;8.48;;
66870;SDS011;53780;44.998;9.926;2023-06-01T02:05:13;14.27;;;8.30;;
66870;SDS011;53780;44.998;9.926;2023-06-01T02:08:17;14.97;;;8.00;;
66870;SDS011;53780;44.998;9.926;2023-06-01T02:11:21;19.45;;;8.30;;
66870;SDS011;53780;44.998;9.926;2023-06-01T02:14:25;14.50;;;8.30;;
66870;SDS011;53780;44.998;9.926;2023-06-01T02:17:29;16.48;;;7.60;;
66870;SDS011;53780;44.998;9.926;2023-06-01T02:20:33;14.23;;;7.60;;
66870;SDS011;53780;44.998;9.926;2023-06-01T02:23:37;12.03;;;7.30;;
66870;SDS011;53780;44.998;9.926;2023-06-01T02:26:47;12.65;;;7.60;;
66870;SDS011;53780;44.998;9.926;2023-06-01T02:29:56;12.50;;;7.65;;
66870;SDS011;53780;44.998;9.926;2023-06-01T02:33:00;13.55;;;7.47;;
66870;SDS011;53780;44.998;9.926;2023-06-01T02:36:05;13.30;;;7.80;;
66870;SDS011;53780;44.998;9.926;2023-06-01T02:39:10;13.67;;;7.20;;
66870;SDS011;53780;44.998;9.926;2023-06-01T02:42:13;13.93;;;7.68;;
66870;SDS011;53780;44.998;9.926;2023-06-01T02:45:17;13.77;;;7.57;;
66870;SDS011;53780;44.998;9.926;2023-06-01T02:48:21;13.10;;;7.53;;
66870;SDS011;53780;44.998;9.926;2023-06-01T02:51:25;16.10;;;7.85;;
66870;SDS011;53780;44.998;9.926;2023-06-01T02:54:40;13.87;;;7.70;;
66870;SDS011;53780;44.998;9.926;2023-06-01T02:58:03;15.30;;;7.90;;
66870;SDS011;53780;44.998;9.926;2023-06-01T03:01:16;16.67;;;8.30;;
66870;SDS011;53780;44.998;9.926;2023-06-01T03:04:20;16.02;;;8.25;;
66870;SDS011;53780;44.998;9.926;2023-06-01T03:07:25;15.98;;;8.07;;
66870;SDS011;53780;44.998;9.926;2023-06-01T03:10:32;14.03;;;8.00;;
66870;SDS011;53780;44.998;9.926;2023-06-01T03:13:46;14.65;;;8.07;;
66870;SDS011;53780;44.998;9.926;2023-06-01T03:16:50;15.50;;;7.70;;
66870;SDS011;53780;44.998;9.926;2023-06-01T03:19:56;14.95;;;7.57;;
66870;SDS011;53780;44.998;9.926;2023-06-01T03:23:00;15.98;;;8.15;;
66870;SDS011;53780;44.998;9.926;2023-06-01T03:26:04;15.50;;;7.90;;
66870;SDS011;53780;44.998;9.926;2023-06-01T03:29:08;14.75;;;7.90;;
66870;SDS011;53780;44.998;9.926;2023-06-01T03:32:13;13.93;;;7.75;;
66870;SDS011;53780;44.998;9.926;2023-06-01T03:35:17;16.10;;;8.35;;
66870;SDS011;53780;44.998;9.926;2023-06-01T03:38:22;15.27;;;7.72;;
66870;SDS011;53780;44.998;9.926;2023-06-01T03:41:26;14.37;;;8.17;;
66870;SDS011;53780;44.998;9.926;2023-06-01T03:44:30;14.23;;;7.90;;
66870;SDS011;53780;44.998;9.926;2023-06-01T03:47:34;15.07;;;7.75;;
66870;SDS011;53780;44.998;9.926;2023-06-01T03:50:39;16.58;;;7.90;;
66870;SDS011;53780;44.998;9.926;2023-06-01T03:53:43;13.88;;;7.90;;
66870;SDS011;53780;44.998;9.926;2023-06-01T03:56:48;14.97;;;7.87;;
66870;SDS011;53780;44.998;9.926;2023-06-01T03:59:52;13.85;;;8.10;;
66870;SDS011;53780;44.998;9.926;2023-06-01T04:02:56;13.40;;;7.63;;
66870;SDS011;53780;44.998;9.926;2023-06-01T04:06:02;14.95;;;8.02;;
66870;SDS011;53780;44.998;9.926;2023-06-01T04:09:07;14.57;;;8.38;;
66870;SDS011;53780;44.998;9.926;2023-06-01T07:11:44;13.13;;;9.50;;
66870;SDS011;53780;44.998;9.926;2023-06-01T07:14:49;13.68;;;9.38;;
66870;SDS011;53780;44.998;9.926;2023-06-01T07:17:53;13.40;;;9.55;;
66870;SDS011;53780;44.998;9.926;2023-06-01T07:20:58;20.13;;;9.80;;
66870;SDS011;53780;44.998;9.926;2023-06-01T07:24:02;11.47;;;9.20;;
66870;SDS011;53780;44.998;9.926;2023-06-01T07:27:07;12.98;;;9.95;;
66870;SDS011;53780;44.998;9.926;2023-06-01T07:30:17;14.38;;;8.93;;
66870;SDS011;53780;44.998;9.926;2023-06-01T07:33:21;10.95;;;8.57;;
66870;SDS011;53780;44.998;9.926;2023-06-01T07:36:26;13.45;;;10.88;;
66870;SDS011;53780;44.998;9.926;2023-06-01T07:39:30;15.93;;;11.27;;
66870;SDS011;53780;44.998;9.926;2023-06-01T07:42:34;16.98;;;10.05;;
66870;SDS011;53780;44.998;9.926;2023-06-01T07:45:39;13.48;;;9.32;;
66870;SDS011;53780;44.998;9.926;2023-06-01T07:48:44;11.65;;;9.38;;
66870;SDS011;53780;44.998;9.926;2023-06-01T07:51:47;12.15;;;9.55;;
66870;SDS011;53780;44.998;9.926;2023-06-01T07:54:53;12.80;;;9.77;;
66870;SDS011;53780;44.998;9.926;2023-06-01T07:57:56;13.48;;;9.40;;
66870;SDS011;53780;44.998;9.926;2023-06-01T08:01:00;15.43;;;10.38;;
66870;SDS011;53780;44.998;9.926;2023-06-01T08:04:04;14.70;;;10.23;;
66870;SDS011;53780;44.998;9.926;2023-06-01T08:07:09;13.45;;;10.45;;
66870;SDS011;53780;44.998;9.926;2023-06-01T08:10:13;14.43;;;10.83;;
66870;SDS011;53780;44.998;9.926;2023-06-01T08:13:17;16.55;;;10.55;;
66870;SDS011;53780;44.998;9.926;2023-06-01T08:16:22;13.65;;;10.35;;
66870;SDS011;53780;44.998;9.926;2023-06-01T08:19:26;12.60;;;9.93;;
66870;SDS011;53780;44.998;9.926;2023-06-01T08:22:30;14.38;;;10.18;;
66870;SDS011;53780;44.998;9.926;2023-06-01T08:25:34;13.00;;;10.70;;
66870;SDS011;53780;44.998;9.926;2023-06-01T08:28:38;17.58;;;10.73;;
66870;SDS011;53780;44.998;9.926;2023-06-01T08:31:41;13.65;;;11.60;;
66870;SDS011;53780;44.998;9.926;2023-06-01T08:34:45;12.43;;;11.10;;
66870;SDS011;53780;44.998;9.926;2023-06-01T08:37:50;15.02;;;11.43;;
66870;SDS011;53780;44.998;9.926;2023-06-01T08:40:54;13.77;;;11.73;;
66870;SDS011;53780;44.998;9.926;2023-06-01T08:44:03;12.50;;;11.00;;
66870;SDS011;53780;44.998;9.926;2023-06-01T08:47:09;16.02;;;10.80;;
66870;SDS011;53780;44.998;9.926;2023-06-01T08:50:13;13.35;;;9.95;;
66870;SDS011;53780;44.998;9.926;2023-06-01T08:53:19;15.95;;;10.65;;
66870;SDS011;53780;44.998;9.926;2023-06-01T08:56:27;14.40;;;10.43;;
66870;SDS011;53780;44.998;9.926;2023-06-01T08:59:31;13.10;;;9.70;;
66870;SDS011;53780;44.998;9.926;2023-06-01T09:02:35;12.15;;;9.77;;
66870;SDS011;53780;44.998;9.926;2023-06-01T09:05:39;11.75;;;9.00;;
66870;SDS011;53780;44.998;9.926;2023-06-01T09:08:46;13.25;;;10.50;;
66870;SDS011;53780;44.998;9.926;2023-06-01T09:15:24;11.98;;;9.55;;
66870;SDS011;53780;44.998;9.926;2023-06-01T09:18:29;15.10;;;9.63;;
66870;SDS011;53780;44.998;9.926;2023-06-01T09:21:33;13.27;;;9.15;;
66870;SDS011;53780;44.998;9.926;2023-06-01T09:24:37;10.80;;;9.65;;
66870;SDS011;53780;44.998;9.926;2023-06-01T09:27:48;12.97;;;9.13;;
66870;SDS011;53780;44.998;9.926;2023-06-01T09:30:54;12.93;;;8.93;;
66870;SDS011;53780;44.998;9.926;2023-06-01T09:34:01;13.38;;;9.40;;
66870;SDS011;53780;44.998;9.926;2023-06-01T09:37:06;12.98;;;8.27;;
66870;SDS011;53780;44.998;9.926;2023-06-01T09:40:16;13.30;;;9.52;;
66870;SDS011;53780;44.998;9.926;2023-06-01T09:43:21;14.57;;;8.60;;
66870;SDS011;53780;44.998;9.926;2023-06-01T09:46:26;12.52;;;9.85;;
66870;SDS011;53780;44.998;9.926;2023-06-01T09:49:34;11.82;;;8.40;;
66870;SDS011;53780;44.998;9.926;2023-06-01T09:52:40;14.32;;;10.02;;
66870;SDS011;53780;44.998;9.926;2023-06-01T09:55:58;13.45;;;9.98;;
66870;SDS011;53780;44.998;9.926;2023-06-01T09:59:03;12.40;;;9.23;;
66870;SDS011;53780;44.998;9.926;2023-06-01T10:02:10;12.20;;;9.48;;
66870;SDS011;53780;44.998;9.926;2023-06-01T10:05:19;11.48;;;9.85;;
66870;SDS011;53780;44.998;9.926;2023-06-01T10:08:24;10.65;;;8.55;;
66870;SDS011;53780;44.998;9.926;2023-06-01T10:11:28;12.23;;;8.95;;
66870;SDS011;53780;44.998;9.926;2023-06-01T10:14:33;10.67;;;8.20;;
66870;SDS011;53780;44.998;9.926;2023-06-01T10:17:37;11.85;;;9.48;;
66870;SDS011;53780;44.998;9.926;2023-06-01T10:20:45;10.88;;;9.20;;
66870;SDS011;53780;44.998;9.926;2023-06-01T10:23:50;11.77;;;9.10;;
66870;SDS011;53780;44.998;9.926;2023-06-01T10:27:05;12.13;;;9.57;;
66870;SDS011;53780;44.998;9.926;2023-06-01T10:30:29;14.27;;;8.30;;
66870;SDS011;53780;44.998;9.926;2023-06-01T10:33:55;12.38;;;8.40;;
66870;SDS011;53780;44.998;9.926;2023-06-01T10:43:53;13.50;;;8.57;;
66870;SDS011;53780;44.998;9.926;2023-06-01T10:46:50;12.37;;;7.47;;
66870;SDS011;53780;44.998;9.926;2023-06-01T10:53:23;14.02;;;8.45;;
66870;SDS011;53780;44.998;9.926;2023-06-01T10:56:29;12.40;;;8.07;;
66870;SDS011;53780;44.998;9.926;2023-06-01T10:59:35;11.15;;;7.90;;
66870;SDS011;53780;44.998;9.926;2023-06-01T11:02:43;14.30;;;9.10;;
66870;SDS011;53780;44.998;9.926;2023-06-01T11:05:58;11.90;;;8.18;;
66870;SDS011;53780;44.998;9.926;2023-06-01T11:09:03;12.13;;;7.53;;
66870;SDS011;53780;44.998;9.926;2023-06-01T11:12:13;12.60;;;8.02;;
66870;SDS011;53780;44.998;9.926;2023-06-01T11:15:17;15.05;;;7.70;;
66870;SDS011;53780;44.998;9.926;2023-06-01T11:21:44;10.82;;;7.57;;
66870;SDS011;53780;44.998;9.926;2023-06-01T11:24:48;14.63;;;6.90;;
66870;SDS011;53780;44.998;9.926;2023-06-01T11:27:57;12.45;;;6.82;;
66870;SDS011;53780;44.998;9.926;2023-06-01T11:31:01;13.75;;;7.22;;
66870;SDS011;53780;44.998;9.926;2023-06-01T11:34:06;13.63;;;7.07;;
66870;SDS011;53780;44.998;9.926;2023-06-01T11:37:15;12.48;;;7.18;;
66870;SDS011;53780;44.998;9.926;2023-06-01T11:40:19;12.50;;;6.78;;
66870;SDS011;53780;44.998;9.926;2023-06-01T11:43:29;11.88;;;7.38;;
66870;SDS011;53780;44.998;9.926;2023-06-01T11:46:33;12.25;;;7.70;;
66870;SDS011;53780;44.998;9.926;2023-06-01T11:49:47;12.23;;;7.33;;
66870;SDS011;53780;44.998;9.926;2023-06-01T11:52:53;12.07;;;7.50;;
66870;SDS011;53780;44.998;9.926;2023-06-01T11:55:58;10.73;;;7.20;;
66870;SDS011;53780;44.998;9.926;2023-06-01T11:59:03;13.25;;;7.97;;
66870;SDS011;53780;44.998;9.926;2023-06-01T12:02:18;12.30;;;7.45;;
66870;SDS011;53780;44.998;9.926;2023-06-01T12:05:37;12.70;;;7.40;;
66870;SDS011;53780;44.998;9.926;2023-06-01T12:08:41;12.10;;;7.40;;
66870;SDS011;53780;44.998;9.926;2023-06-01T12:11:46;13.02;;;7.80;;
66870;SDS011;53780;44.998;9.926;2023-06-01T12:14:51;11.75;;;7.20;;
66870;SDS011;53780;44.998;9.926;2023-06-01T12:17:56;12.13;;;6.93;;
66870;SDS011;53780;44.998;9.926;2023-06-01T12:21:07;13.33;;;7.53;;
66870;SDS011;53780;44.998;9.926;2023-06-01T12:24:12;12.73;;;7.03;;
66870;SDS011;53780;44.998;9.926;2023-06-01T12:27:17;12.55;;;6.38;;
66870;SDS011;53780;44.998;9.926;2023-06-01T12:30:25;12.80;;;7.05;;
66870;SDS011;53780;44.998;9.926;2023-06-01T12:33:32;10.95;;;6.57;;
66870;SDS011;53780;44.998;9.926;2023-06-01T12:36:37;13.20;;;6.20;;
66870;SDS011;53780;44.998;9.926;2023-06-01T12:39:43;11.48;;;7.43;;
66870;SDS011;53780;44.998;9.926;2023-06-01T12:42:54;12.40;;;7.20;;
66870;SDS011;53780;44.998;9.926;2023-06-01T12:45:58;13.05;;;8.00;;
66870;SDS011;53780;44.998;9.926;2023-06-01T12:49:12;11.88;;;7.53;;
66870;SDS011;53780;44.998;9.926;2023-06-01T12:52:23;13.05;;;7.40;;
66870;SDS011;53780;44.998;9.926;2023-06-01T12:55:27;12.33;;;7.33;;
66870;SDS011;53780;44.998;9.926;2023-06-01T12:58:31;10.82;;;6.95;;
66870;SDS011;53780;44.998;9.926;2023-06-01T13:01:35;11.93;;;6.40;;
66870;SDS011;53780;44.998;9.926;2023-06-01T13:04:39;10.20;;;5.97;;
66870;SDS011;53780;44.998;9.926;2023-06-01T13:07:43;12.77;;;6.85;;
66870;SDS011;53780;44.998;9.926;2023-06-01T13:10:47;12.60;;;7.23;;
66870;SDS011;53780;44.998;9.926;2023-06-01T13:13:52;12.00;;;6.95;;
66870;SDS011;53780;44.998;9.926;2023-06-01T13:16:56;12.05;;;6.53;;
66870;SDS011;53780;44.998;9.926;2023-06-01T13:20:01;10.40;;;6.38;;
66870;SDS011;53780;44.998;9.926;2023-06-01T13:23:06;11.85;;;6.10;;
66870;SDS011;53780;44.998;9.926;2023-06-01T13:26:10;9.93;;;6.10;;
66870;SDS011;53780;44.998;9.926;2023-06-01T13:29:15;11.40;;;6.50;;
66870;SDS011;53780;44.998;9.926;2023-06-01T13:32:19;14.00;;;6.50;;
66870;SDS011;53780;44.998;9.926;2023-06-01T13:35:23;13.18;;;7.20;;
66870;SDS011;53780;44.998;9.926;2023-06-01T13:38:27;13.93;;;7.60;;
66870;SDS011;53780;44.998;9.926;2023-06-01T13:41:31;14.50;;;7.23;;
66870;SDS011;53780;44.998;9.926;2023-06-01T13:44:35;12.27;;;6.72;;
66870;SDS011;53780;44.998;9.926;2023-06-01T13:47:39;12.77;;;6.88;;
66870;SDS011;53780;44.998;9.926;2023-06-01T13:50:44;10.75;;;6.85;;
66870;SDS011;53780;44.998;9.926;2023-06-01T13:53:48;11.63;;;6.47;;
66870;SDS011;53780;44.998;9.926;2023-06-01T13:56:52;12.87;;;6.63;;
66870;SDS011;53780;44.998;9.926;2023-06-01T13:59:56;9.77;;;6.32;;
66870;SDS011;53780;44.998;9.926;2023-06-01T14:03:00;13.02;;;6.90;;
66870;SDS011;53780;44.998;9.926;2023-06-01T14:06:04;10.63;;;7.00;;
66870;SDS011;53780;44.998;9.926;2023-06-01T14:09:09;10.55;;;6.28;;
66870;SDS011;53780;44.998;9.926;2023-06-01T14:12:13;11.40;;;6.33;;
66870;SDS011;53780;44.998;9.926;2023-06-01T14:15:16;13.57;;;6.88;;
66870;SDS011;53780;44.998;9.926;2023-06-01T14:18:21;9.93;;;6.35;;
66870;SDS011;53780;44.998;9.926;2023-06-01T14:21:24;13.55;;;6.80;;
66870;SDS011;53780;44.998;9.926;2023-06-01T14:24:28;12.70;;;7.38;;
66870;SDS011;53780;44.998;9.926;2023-06-01T14:27:34;14.33;;;6.63;;
66870;SDS011;53780;44.998;9.926;2023-06-01T14:30:40;11.98;;;7.00;;
66870;SDS011;53780;44.998;9.926;2023-06-01T14:33:44;13.63;;;7.10;;
66870;SDS011;53780;44.998;9.926;2023-06-01T14:36:48;12.40;;;6.43;;
66870;SDS011;53780;44.998;9.926;2023-06-01T14:39:52;11.20;;;6.38;;
66870;SDS011;53780;44.998;9.926;2023-06-01T14:42:56;11.20;;;6.53;;
66870;SDS011;53780;44.998;9.926;2023-06-01T14:45:59;10.48;;;6.40;;
66870;SDS011;53780;44.998;9.926;2023-06-01T14:49:04;11.52;;;6.53;;
66870;SDS011;53780;44.998;9.926;2023-06-01T14:52:08;11.80;;;6.40;;
66870;SDS011;53780;44.998;9.926;2023-06-01T14:55:12;11.07;;;6.85;;
66870;SDS011;53780;44.998;9.926;2023-06-01T14:58:15;11.73;;;6.50;;
66870;SDS011;53780;44.998;9.926;2023-06-01T15:01:19;10.23;;;6.40;;
66870;SDS011;53780;44.998;9.926;2023-06-01T15:04:24;13.20;;;6.80;;
66870;SDS011;53780;44.998;9.926;2023-06-01T15:07:28;10.70;;;6.50;;
66870;SDS011;53780;44.998;9.926;2023-06-01T15:10:32;11.52;;;6.68;;
66870;SDS011;53780;44.998;9.926;2023-06-01T15:13:36;11.83;;;6.80;;
66870;SDS011;53780;44.998;9.926;2023-06-01T15:16:41;11.30;;;6.63;;
66870;SDS011;53780;44.998;9.926;2023-06-01T15:19:45;11.70;;;6.70;;
66870;SDS011;53780;44.998;9.926;2023-06-01T15:22:49;12.60;;;6.40;;
66870;SDS011;53780;44.998;9.926;2023-06-01T15:25:53;12.38;;;7.15;;
66870;SDS011;53780;44.998;9.926;2023-06-01T15:29:05;11.57;;;6.63;;
66870;SDS011;53780;44.998;9.926;2023-06-01T15:32:12;12.90;;;8.15;;
66870;SDS011;53780;44.998;9.926;2023-06-01T15:35:17;23.27;;;11.48;;
66870;SDS011;53780;44.998;9.926;2023-06-01T15:38:27;20.05;;;8.82;;
66870;SDS011;53780;44.998;9.926;2023-06-01T15:41:31;13.55;;;7.22;;
66870;SDS011;53780;44.998;9.926;2023-06-01T15:44:39;13.63;;;6.53;;
66870;SDS011;53780;44.998;9.926;2023-06-01T15:47:43;11.30;;;7.07;;
66870;SDS011;53780;44.998;9.926;2023-06-01T15:50:47;13.45;;;7.13;;
66870;SDS011;53780;44.998;9.926;2023-06-01T15:53:51;12.45;;;7.55;;
66870;SDS011;53780;44.998;9.926;2023-06-01T15:56:55;15.95;;;7.90;;
66870;SDS011;53780;44.998;9.926;2023-06-01T15:59:59;10.63;;;6.87;;
66870;SDS011;53780;44.998;9.926;2023-06-01T16:03:03;12.20;;;7.30;;
66870;SDS011;53780;44.998;9.926;2023-06-01T16:06:08;12.00;;;7.10;;
66870;SDS011;53780;44.998;9.926;2023-06-01T16:09:11;10.77;;;6.43;;
66870;SDS011;53780;44.998;9.926;2023-06-01T16:12:15;13.20;;;7.55;;
66870;SDS011;53780;44.998;9.926;2023-06-01T16:15:19;12.50;;;7.50;;
66870;SDS011;53780;44.998;9.926;2023-06-01T16:18:23;13.15;;;7.50;;
66870;SDS011;53780;44.998;9.926;2023-06-01T16:21:27;14.43;;;7.78;;
66870;SDS011;53780;44.998;9.926;2023-06-01T16:24:30;12.63;;;6.90;;
66870;SDS011;53780;44.998;9.926;2023-06-01T16:27:34;12.73;;;7.60;;
66870;SDS011;53780;44.998;9.926;2023-06-01T16:30:39;12.73;;;7.23;;
66870;SDS011;53780;44.998;9.926;2023-06-01T16:33:43;11.05;;;7.07;;
66870;SDS011;53780;44.998;9.926;2023-06-01T16:36:47;12.90;;;6.70;;
66870;SDS011;53780;44.998;9.926;2023-06-01T16:39:50;12.52;;;6.68;;
66870;SDS011;53780;44.998;9.926;2023-06-01T16:42:54;12.93;;;6.97;;
66870;SDS011;53780;44.998;9.926;2023-06-01T16:45:58;11.70;;;7.03;;
66870;SDS011;53780;44.998;9.926;2023-06-01T16:49:02;11.02;;;6.72;;
66870;SDS011;53780;44.998;9.926;2023-06-01T16:52:08;13.57;;;7.07;;
66870;SDS011;53780;44.998;9.926;2023-06-01T16:55:12;14.57;;;7.15;;
66870;SDS011;53780;44.998;9.926;2023-06-01T16:58:17;12.18;;;7.20;;
66870;SDS011;53780;44.998;9.926;2023-06-01T17:01:21;12.47;;;6.90;;
66870;SDS011;53780;44.998;9.926;2023-06-01T17:04:24;12.02;;;6.68;;
66870;SDS011;53780;44.998;9.926;2023-06-01T17:07:28;10.20;;;6.65;;
66870;SDS011;53780;44.998;9.926;2023-06-01T17:10:32;12.63;;;6.80;;
66870;SDS011;53780;44.998;9.926;2023-06-01T17:13:36;13.73;;;7.28;;
66870;SDS011;53780;44.998;9.926;2023-06-01T17:16:40;10.53;;;6.40;;
66870;SDS011;53780;44.998;9.926;2023-06-01T17:19:45;12.63;;;6.55;;
66870;SDS011;53780;44.998;9.926;2023-06-01T17:22:49;11.50;;;7.05;;
66870;SDS011;53780;44.998;9.926;2023-06-01T17:25:54;11.65;;;7.00;;
66870;SDS011;53780;44.998;9.926;2023-06-01T17:28:58;13.00;;;7.43;;
66870;SDS011;53780;44.998;9.926;2023-06-01T17:32:02;11.83;;;6.77;;
66870;SDS011;53780;44.998;9.926;2023-06-01T17:35:06;10.75;;;6.65;;
66870;SDS011;53780;44.998;9.926;2023-06-01T17:38:10;10.70;;;7.18;;
66870;SDS011;53780;44.998;9.926;2023-06-01T17:41:14;13.35;;;7.47;;
66870;SDS011;53780;44.998;9.926;2023-06-01T17:44:18;12.52;;;7.13;;
66870;SDS011;53780;44.998;9.926;2023-06-01T17:47:23;14.67;;;7.20;;
66870;SDS011;53780;44.998;9.926;2023-06-01T17:50:28;12.43;;;6.88;;
66870;SDS011;53780;44.998;9.926;2023-06-01T17:53:31;12.23;;;6.93;;
66870;SDS011;53780;44.998;9.926;2023-06-01T17:56:35;12.45;;;7.30;;
66870;SDS011;53780;44.998;9.926;2023-06-01T17:59:39;11.15;;;6.80;;
66870;SDS011;53780;44.998;9.926;2023-06-01T18:02:45;11.00;;;6.80;;
66870;SDS011;53780;44.998;9.926;2023-06-01T18:05:49;11.02;;;7.00;;
66870;SDS011;53780;44.998;9.926;2023-06-01T18:08:53;12.00;;;7.20;;
66870;SDS011;53780;44.998;9.926;2023-06-01T18:11:57;13.45;;;7.28;;
66870;SDS011;53780;44.998;9.926;2023-06-01T18:15:01;15.18;;;7.10;;
66870;SDS011;53780;44.998;9.926;2023-06-01T18:18:08;13.60;;;7.13;;
66870;SDS011;53780;44.998;9.926;2023-06-01T18:21:12;13.32;;;7.43;;
66870;SDS011;53780;44.998;9.926;2023-06-01T18:24:16;12.00;;;7.03;;
66870;SDS011;53780;44.998;9.926;2023-06-01T18:27:19;12.70;;;7.43;;
66870;SDS011;53780;44.998;9.926;2023-06-01T18:30:24;11.98;;;7.32;;
66870;SDS011;53780;44.998;9.926;2023-06-01T18:33:27;13.73;;;7.57;;
66870;SDS011;53780;44.998;9.926;2023-06-01T18:36:31;11.07;;;7.38;;
66870;SDS011;53780;44.998;9.926;2023-06-01T18:39:35;14.38;;;7.72;;
66870;SDS011;53780;44.998;9.926;2023-06-01T18:42:39;11.63;;;7.65;;
66870;SDS011;53780;44.998;9.926;2023-06-01T18:45:43;14.32;;;7.40;;
66870;SDS011;53780;44.998;9.926;2023-06-01T18:48:47;13.37;;;7.50;;
66870;SDS011;53780;44.998;9.926;2023-06-01T18:51:51;10.68;;;7.07;;
66870;SDS011;53780;44.998;9.926;2023-06-01T18:54:57;11.63;;;7.40;;
66870;SDS011;53780;44.998;9.926;2023-06-01T18:58:01;13.10;;;7.47;;
66870;SDS011;53780;44.998;9.926;2023-06-01T19:01:05;13.50;;;6.70;;
66870;SDS011;53780;44.998;9.926;2023-06-01T19:04:10;12.23;;;7.17;;
66870;SDS011;53780;44.998;9.926;2023-06-01T19:07:32;15.35;;;7.38;;
66870;SDS011;53780;44.998;9.926;2023-06-01T19:13:57;13.05;;;7.30;;
66870;SDS011;53780;44.998;9.926;2023-06-01T19:17:02;14.05;;;6.88;;
66870;SDS011;53780;44.998;9.926;2023-06-01T19:20:08;15.02;;;7.28;;
66870;SDS011;53780;44.998;9.926;2023-06-01T19:23:33;14.70;;;7.87;;
66870;SDS011;53780;44.998;9.926;2023-06-01T19:26:38;14.85;;;7.10;;
66870;SDS011;53780;44.998;9.926;2023-06-01T19:29:42;15.88;;;7.18;;
66870;SDS011;53780;44.998;9.926;2023-06-01T19:32:46;17.30;;;7.80;;
66870;SDS011;53780;44.998;9.926;2023-06-01T19:35:50;17.95;;;7.80;;
66870;SDS011;53780;44.998;9.926;2023-06-01T19:38:54;13.17;;;7.73;;
66870;SDS011;53780;44.998;9.926;2023-06-01T19:42:07;15.52;;;8.18;;
66870;SDS011;53780;44.998;9.926;2023-06-01T19:45:24;14.30;;;8.00;;
66870;SDS011;53780;44.998;9.926;2023-06-01T19:48:30;15.07;;;7.88;;
66870;SDS011;53780;44.998;9.926;2023-06-01T19:51:35;14.82;;;8.65;;
66870;SDS011;53780;44.998;9.926;2023-06-01T19:54:40;14.87;;;8.77;;
66870;SDS011;53780;44.998;9.926;2023-06-01T19:57:45;17.42;;;8.65;;
66870;SDS011;53780;44.998;9.926;2023-06-01T20:00:49;15.02;;;8.80;;
66870;SDS011;53780;44.998;9.926;2023-06-01T20:03:54;13.85;;;7.28;;
66870;SDS011;53780;44.998;9.926;2023-06-01T20:06:58;16.40;;;9.25;;
66870;SDS011;53780;44.998;9.926;2023-06-01T20:10:03;15.00;;;8.00;;
66870;SDS011;53780;44.998;9.926;2023-06-01T20:13:08;14.40;;;8.02;;
66870;SDS011;53780;44.998;9.926;2023-06-01T20:16:12;16.60;;;9.13;;
66870;SDS011;53780;44.998;9.926;2023-06-01T20:19:20;15.88;;;9.10;;
66870;SDS011;53780;44.998;9.926;2023-06-01T20:22:27;20.23;;;9.88;;
66870;SDS011;53780;44.998;9.926;2023-06-01T20:25:31;16.80;;;9.07;;
66870;SDS011;53780;44.998;9.926;2023-06-01T20:28:42;16.75;;;8.00;;
66870;SDS011;53780;44.998;9.926;2023-06-01T20:31:48;19.65;;;8.05;;
66870;SDS011;53780;44.998;9.926;2023-06-01T20:34:52;26.35;;;9.07;;
66870;SDS011;53780;44.998;9.926;2023-06-01T20:37:56;17.10;;;8.32;;
66870;SDS011;53780;44.998;9.926;2023-06-01T20:44:20;17.38;;;8.85;;
66870;SDS011;53780;44.998;9.926;2023-06-01T20:47:24;19.27;;;9.00;;
66870;SDS011;53780;44.998;9.926;2023-06-01T20:50:27;18.25;;;8.90;;
66870;SDS011;53780;44.998;9.926;2023-06-01T20:53:31;16.38;;;8.23;;
66870;SDS011;53780;44.998;9.926;2023-06-01T20:56:39;14.70;;;8.27;;
66870;SDS011;53780;44.998;9.926;2023-06-01T20:59:44;16.15;;;9.20;;
66870;SDS011;53780;44.998;9.926;2023-06-01T21:02:48;15.85;;;9.15;;
66870;SDS011;53780;44.998;9.926;2023-06-01T21:05:52;16.25;;;9.73;;
66870;SDS011;53780;44.998;9.926;2023-06-01T21:08:57;17.38;;;9.27;;
66870;SDS011;53780;44.998;9.926;2023-06-01T21:12:02;16.97;;;9.63;;
66870;SDS011;53780;44.998;9.926;2023-06-01T21:15:07;16.70;;;9.95;;
66870;SDS011;53780;44.998;9.926;2023-06-01T21:18:11;16.52;;;8.68;;
66870;SDS011;53780;44.998;9.926;2023-06-01T21:21:15;15.10;;;9.77;;
66870;SDS011;53780;44.998;9.926;2023-06-01T21:24:19;20.27;;;10.10;;
66870;SDS011;53780;44.998;9.926;2023-06-01T21:27:23;20.67;;;10.43;;
66870;SDS011;53780;44.998;9.926;2023-06-01T21:30:27;18.23;;;9.98;;
66870;SDS011;53780;44.998;9.926;2023-06-01T21:33:32;16.60;;;9.68;;
66870;SDS011;53780;44.998;9.926;2023-06-01T21:36:36;15.93;;;9.40;;
66870;SDS011;53780;44.998;9.926;2023-06-01T21:39:40;14.73;;;9.23;;
66870;SDS011;53780;44.998;9.926;2023-06-01T21:42:43;14.87;;;9.23;;
66870;SDS011;53780;44.998;9.926;2023-06-01T21:45:47;16.65;;;9.68;;
66870;SDS011;53780;44.998;9.926;2023-06-01T21:48:51;13.13;;;9.30;;
66870;SDS011;53780;44.998;9.926;2023-06-01T21:51:56;17.60;;;9.85;;
66870;SDS011;53780;44.998;9.926;2023-06-01T21:54:59;16.85;;;9.18;;
66870;SDS011;53780;44.998;9.926;2023-06-01T21:58:03;18.27;;;10.23;;
66870;SDS011;53780;44.998;9.926;2023-06-01T22:01:09;15.20;;;9.60;;